createdAt,value
2018-06-08T00:01:22.059Z,25.07
2018-06-08T00:03:49.756Z,23.83
2018-06-08T00:06:16.704Z,24.47
2018-06-08T00:08:43.548Z,19.57
2018-06-08T00:11:10.283Z,19.40
2018-06-08T00:13:37.086Z,26.13
2018-06-08T00:16:03.948Z,25.23
2018-06-08T00:18:30.736Z,22.63
2018-06-08T00:20:58.057Z,22.67
2018-06-08T00:23:24.786Z,20.33
2018-06-08T00:25:51.772Z,19.32
2018-06-08T00:28:18.666Z,19.75
2018-06-08T00:30:46.118Z,20.10
2018-06-08T00:33:13.067Z,19.93
2018-06-08T00:35:40.995Z,21.70
2018-06-08T00:38:09.217Z,21.57
2018-06-08T00:40:35.972Z,19.30
2018-06-08T00:43:02.854Z,21.63
2018-06-08T00:45:29.760Z,24.30
2018-06-08T00:47:56.476Z,27.50
2018-06-08T00:50:23.394Z,21.30
2018-06-08T00:52:50.662Z,21.00
2018-06-08T00:55:18.016Z,23.77
2018-06-08T00:57:44.999Z,23.02
2018-06-08T01:00:11.658Z,22.03
2018-06-08T01:02:38.388Z,23.73
2018-06-08T01:05:05.037Z,25.72
2018-06-08T01:07:33.707Z,26.53
2018-06-08T01:10:00.510Z,23.90
2018-06-08T01:12:27.160Z,24.00
2018-06-08T01:14:54.251Z,26.40
2018-06-08T01:17:23.861Z,22.93
2018-06-08T01:19:52.581Z,25.50
2018-06-08T01:22:20.393Z,25.17
2018-06-08T01:24:47.193Z,28.00
2018-06-08T01:27:14.877Z,24.37
2018-06-08T01:29:41.597Z,24.40
2018-06-08T01:32:08.483Z,29.13
2018-06-08T01:34:35.383Z,26.53
2018-06-08T01:37:03.261Z,23.93
2018-06-08T01:39:30.215Z,24.37
2018-06-08T01:41:57.513Z,25.57
2018-06-08T01:44:24.406Z,25.37
2018-06-08T01:46:51.327Z,22.57
2018-06-08T01:49:18.212Z,23.67
2018-06-08T01:51:45.148Z,28.37
2018-06-08T01:54:11.898Z,27.03
2018-06-08T01:56:38.667Z,23.13
2018-06-08T01:59:05.786Z,24.07
2018-06-08T02:01:33.384Z,26.10
2018-06-08T02:04:00.087Z,23.87
2018-06-08T02:06:28.095Z,28.38
2018-06-08T02:08:54.928Z,21.60
2018-06-08T02:11:21.655Z,24.03
2018-06-08T02:13:49.140Z,25.33
2018-06-08T02:16:16.058Z,23.67
2018-06-08T02:18:44.020Z,22.97
2018-06-08T02:21:10.902Z,25.37
2018-06-08T02:23:37.914Z,25.97
2018-06-08T02:26:05.643Z,22.23
2018-06-08T02:28:32.532Z,25.80
2018-06-08T02:30:59.304Z,22.57
2018-06-08T02:33:26.230Z,24.43
2018-06-08T02:35:52.963Z,26.37
2018-06-08T02:38:19.798Z,21.47
2018-06-08T02:40:46.668Z,23.10
2018-06-08T02:43:13.490Z,26.90
2018-06-08T02:45:40.704Z,23.53
2018-06-08T02:48:07.568Z,23.30
2018-06-08T02:50:34.544Z,24.00
2018-06-08T02:53:01.480Z,25.07
2018-06-08T02:55:28.794Z,20.70
2018-06-08T02:57:55.620Z,25.00
2018-06-08T03:00:22.508Z,23.57
2018-06-08T03:02:49.890Z,23.23
2018-06-08T03:05:17.023Z,32.20
2018-06-08T03:07:44.516Z,24.87
2018-06-08T03:10:11.326Z,28.33
2018-06-08T03:12:38.156Z,23.83
2018-06-08T03:15:05.702Z,20.67
2018-06-08T03:17:32.601Z,23.40
2018-06-08T03:20:00.034Z,25.20
2018-06-08T03:22:26.833Z,21.93
2018-06-08T03:24:53.948Z,25.77
2018-06-08T03:27:24.038Z,23.30
2018-06-08T03:29:50.772Z,23.93
2018-06-08T03:32:17.479Z,21.80
2018-06-08T03:34:44.269Z,25.97
2018-06-08T03:37:11.265Z,20.40
2018-06-08T03:39:38.032Z,21.10
2018-06-08T03:42:04.941Z,24.30
2018-06-08T03:44:32.614Z,25.33
2018-06-08T03:46:59.535Z,21.10
2018-06-08T03:49:26.369Z,22.07
2018-06-08T03:51:53.095Z,25.83
2018-06-08T03:54:20.032Z,25.20
2018-06-08T03:56:48.419Z,19.30
2018-06-08T03:59:15.751Z,21.93
2018-06-08T04:01:44.167Z,21.00
2018-06-08T04:04:11.222Z,22.90
2018-06-08T04:06:38.209Z,22.43
2018-06-08T04:09:04.986Z,23.73
2018-06-08T04:11:32.302Z,21.70
2018-06-08T04:13:58.979Z,22.73
2018-06-08T04:16:25.733Z,24.80
2018-06-08T04:18:52.625Z,19.70
2018-06-08T04:21:19.457Z,22.63
2018-06-08T04:23:47.678Z,24.57
2018-06-08T04:26:14.583Z,24.53
2018-06-08T04:28:41.526Z,23.33
2018-06-08T04:31:08.380Z,25.07
2018-06-08T04:33:35.242Z,21.37
2018-06-08T04:36:02.725Z,25.73
2018-06-08T04:38:30.239Z,25.33
2018-06-08T04:40:57.166Z,21.03
2018-06-08T04:43:23.991Z,17.83
2018-06-08T04:45:50.914Z,22.87
2018-06-08T04:48:17.816Z,23.57
2018-06-08T04:50:44.902Z,29.10
2018-06-08T04:53:11.923Z,22.83
2018-06-08T04:55:38.982Z,24.07
2018-06-08T04:58:07.002Z,22.07
2018-06-08T05:00:33.713Z,20.57
2018-06-08T05:03:00.626Z,25.93
2018-06-08T05:05:27.378Z,24.27
2018-06-08T05:07:55.860Z,27.03
2018-06-08T05:10:23.256Z,20.90
2018-06-08T05:12:52.548Z,24.43
2018-06-08T05:15:19.388Z,23.87
2018-06-08T05:17:46.720Z,23.70
2018-06-08T05:20:16.268Z,21.80
2018-06-08T05:22:43.474Z,22.10
2018-06-08T05:25:10.633Z,26.10
2018-06-08T05:27:37.578Z,17.37
2018-06-08T05:30:08.854Z,18.93
2018-06-08T05:32:36.200Z,26.43
2018-06-08T05:35:03.674Z,22.30
2018-06-08T05:37:30.561Z,25.97
2018-06-08T05:39:57.423Z,20.97
2018-06-08T05:42:24.585Z,23.70
2018-06-08T05:44:51.338Z,23.20
2018-06-08T05:47:18.207Z,20.80
2018-06-08T05:49:45.159Z,22.87
2018-06-08T05:52:13.590Z,26.20
2018-06-08T05:54:41.055Z,19.07
2018-06-08T05:57:08.582Z,21.23
2018-06-08T05:59:37.141Z,16.00
2018-06-08T06:02:03.977Z,25.10
2018-06-08T06:04:31.507Z,21.07
2018-06-08T06:06:58.350Z,22.50
2018-06-08T06:09:25.161Z,20.13
2018-06-08T06:11:52.123Z,19.13
2018-06-08T06:14:19.285Z,19.20
2018-06-08T06:16:46.149Z,16.67
2018-06-08T06:19:12.944Z,14.77
2018-06-08T06:21:39.869Z,17.30
2018-06-08T06:24:06.799Z,16.53
2018-06-08T06:26:34.437Z,18.80
2018-06-08T06:29:01.190Z,16.47
2018-06-08T06:31:28.188Z,15.67
2018-06-08T06:33:55.070Z,19.33
2018-06-08T06:36:22.330Z,15.57
2018-06-08T06:38:49.098Z,17.63
2018-06-08T06:41:17.035Z,18.70
2018-06-08T06:43:44.410Z,21.17
2018-06-08T06:46:11.964Z,15.87
2018-06-08T06:48:39.564Z,18.90
2018-06-08T06:51:06.362Z,15.93
2018-06-08T06:53:33.289Z,21.30
2018-06-08T06:56:00.206Z,19.33
2018-06-08T06:58:27.146Z,17.83
2018-06-08T07:00:54.519Z,20.40
2018-06-08T07:03:21.994Z,14.07
2018-06-08T07:05:48.816Z,18.20
2018-06-08T07:08:15.660Z,21.37
2018-06-08T07:10:42.602Z,16.57
2018-06-08T07:13:09.324Z,22.17
2018-06-08T07:15:36.730Z,24.27
2018-06-08T07:18:03.454Z,17.63
2018-06-08T07:20:31.779Z,15.30
2018-06-08T07:22:58.651Z,17.67
2018-06-08T07:25:25.463Z,18.07
2018-06-08T07:27:52.771Z,14.63
2018-06-08T07:30:19.747Z,17.03
2018-06-08T07:32:46.465Z,17.07
2018-06-08T07:35:13.276Z,23.23
2018-06-08T07:37:40.155Z,16.23
2018-06-08T07:40:06.992Z,18.60
2018-06-08T07:42:33.757Z,16.33
2018-06-08T07:45:00.635Z,15.17
2018-06-08T07:47:27.549Z,24.10
2018-06-08T07:49:54.411Z,16.70
2018-06-08T07:52:21.233Z,14.67
2018-06-08T07:54:48.356Z,19.13
2018-06-08T07:57:15.754Z,18.87
2018-06-08T07:59:42.663Z,16.23
2018-06-08T08:02:09.544Z,14.13
2018-06-08T08:04:36.587Z,14.87
2018-06-08T08:07:03.573Z,16.70
2018-06-08T08:09:30.437Z,13.87
2018-06-08T08:11:57.254Z,17.13
2018-06-08T08:14:24.066Z,17.40
2018-06-08T08:16:51.839Z,21.97
2018-06-08T08:19:18.641Z,14.40
2018-06-08T08:21:45.411Z,14.00
2018-06-08T08:24:12.194Z,17.77
2018-06-08T08:26:39.031Z,16.13
2018-06-08T08:29:05.964Z,18.00
2018-06-08T08:31:33.004Z,17.10
2018-06-08T08:33:59.871Z,18.07
2018-06-08T08:36:26.712Z,16.60
2018-06-08T08:38:54.480Z,12.87
2018-06-08T08:41:21.848Z,14.87
2018-06-08T08:43:49.129Z,15.67
2018-06-08T08:46:16.652Z,19.20
2018-06-08T08:48:43.585Z,18.73
2018-06-08T08:51:10.271Z,19.00
2018-06-08T08:53:37.190Z,18.60
2018-06-08T08:56:04.090Z,19.00
2018-06-08T08:58:30.993Z,14.87
2018-06-08T09:00:58.746Z,17.03
2018-06-08T09:03:26.544Z,18.80
2018-06-08T09:05:53.314Z,18.70
2018-06-08T09:08:20.826Z,19.85
2018-06-08T09:10:47.665Z,21.10
2018-06-08T09:13:15.421Z,20.57
2018-06-08T09:15:42.312Z,16.07
2018-06-08T09:18:10.707Z,19.40
2018-06-08T09:20:37.600Z,17.12
2018-06-08T09:23:04.440Z,18.00
2018-06-08T09:25:31.331Z,21.23
2018-06-08T09:27:58.213Z,17.05
2018-06-08T09:30:25.159Z,22.83
2018-06-08T09:32:52.147Z,18.98
2018-06-08T09:35:19.591Z,22.37
2018-06-08T09:37:46.693Z,18.82
2018-06-08T09:40:13.597Z,19.20
2018-06-08T09:42:40.561Z,19.20
2018-06-08T09:45:08.325Z,15.30
2018-06-08T09:47:35.221Z,17.40
2018-06-08T09:50:02.190Z,20.77
2018-06-08T09:52:29.020Z,16.77
2018-06-08T09:54:57.014Z,19.67
2018-06-08T09:57:23.856Z,15.90
2018-06-08T09:59:51.824Z,17.07
2018-06-08T10:02:18.548Z,16.37
2018-06-08T10:04:45.364Z,15.72
2018-06-08T10:07:12.269Z,19.10
2018-06-08T10:09:39.994Z,18.90
2018-06-08T10:12:07.414Z,20.17
2018-06-08T10:14:34.354Z,16.75
2018-06-08T10:17:01.103Z,19.17
2018-06-08T10:19:28.690Z,15.88
2018-06-08T10:21:56.080Z,17.07
2018-06-08T10:24:22.828Z,18.27
2018-06-08T10:26:49.678Z,14.43
2018-06-08T10:29:16.479Z,17.20
2018-06-08T10:31:43.727Z,17.67
2018-06-08T10:34:10.934Z,21.02
2018-06-08T10:36:37.732Z,19.25
2018-06-08T10:39:04.574Z,19.57
2018-06-08T10:41:31.912Z,16.32
2018-06-08T10:43:59.408Z,15.85
2018-06-08T10:46:27.237Z,23.40
2018-06-08T10:48:54.608Z,19.98
2018-06-08T10:51:21.649Z,20.70
2018-06-08T10:53:48.556Z,19.98
2018-06-08T10:56:16.041Z,23.55
2018-06-08T10:58:42.965Z,20.88
2018-06-08T11:01:09.878Z,22.35
2018-06-08T11:03:38.455Z,26.27
2018-06-08T11:06:05.506Z,17.13
2018-06-08T11:08:32.404Z,29.35
2018-06-08T11:10:59.226Z,25.23
2018-06-08T11:13:27.314Z,24.15
2018-06-08T11:15:54.402Z,30.15
2018-06-08T11:18:21.222Z,21.68
2018-06-08T11:20:48.054Z,25.92
2018-06-08T11:23:14.839Z,20.52
2018-06-08T11:25:41.633Z,24.45
2018-06-08T11:28:08.682Z,26.02
2018-06-08T11:30:35.571Z,26.60
2018-06-08T11:33:03.284Z,26.33
2018-06-08T11:35:30.262Z,25.80
2018-06-08T11:37:57.027Z,31.42
2018-06-08T11:40:23.937Z,33.30
2018-06-08T11:42:51.039Z,32.03
2018-06-08T11:45:17.940Z,26.57
2018-06-08T11:47:45.960Z,29.82
2018-06-08T11:50:13.353Z,24.10
2018-06-08T11:55:21.669Z,26.85
2018-06-08T11:57:49.438Z,30.00
2018-06-08T12:00:16.526Z,26.12
2018-06-08T12:02:43.536Z,28.40
2018-06-08T12:05:10.561Z,22.42
2018-06-08T12:07:37.327Z,25.85
2018-06-08T12:10:04.830Z,23.45
2018-06-08T12:12:31.663Z,29.37
2018-06-08T12:14:58.443Z,25.95
2018-06-08T12:17:25.208Z,21.00
2018-06-08T12:19:52.063Z,19.62
2018-06-08T12:22:18.855Z,26.30
2018-06-08T12:24:45.605Z,17.45
2018-06-08T12:27:12.346Z,16.40
2018-06-08T12:29:39.261Z,18.30
2018-06-08T12:32:06.044Z,14.73
2018-06-08T12:34:32.836Z,22.15
2018-06-08T12:36:59.596Z,18.05
2018-06-08T12:39:26.326Z,15.75
2018-06-08T12:41:53.053Z,17.60
2018-06-08T12:44:19.795Z,18.42
2018-06-08T12:46:46.590Z,23.12
2018-06-08T12:49:13.331Z,17.25
2018-06-08T12:51:40.167Z,14.95
2018-06-08T12:54:06.899Z,18.80
2018-06-08T12:56:33.776Z,13.88
2018-06-08T12:59:00.704Z,21.12
2018-06-08T13:01:27.546Z,21.80
2018-06-08T13:03:54.281Z,21.52
2018-06-08T13:06:21.051Z,19.23
2018-06-08T13:08:47.822Z,23.83
2018-06-08T13:11:14.706Z,15.23
2018-06-08T13:13:41.424Z,19.75
2018-06-08T13:16:08.274Z,16.93
2018-06-08T13:18:35.108Z,17.35
2018-06-08T13:21:01.884Z,18.70
2018-06-08T13:23:28.696Z,16.67
2018-06-08T13:25:55.494Z,15.08
2018-06-08T13:28:23.219Z,18.77
2018-06-08T13:30:51.024Z,20.82
2018-06-08T13:33:17.728Z,16.10
2018-06-08T13:35:44.553Z,17.80
2018-06-08T13:38:11.409Z,17.40
2018-06-08T13:40:38.249Z,14.55
2018-06-08T13:43:04.991Z,16.23
2018-06-08T13:45:31.755Z,15.50
2018-06-08T13:47:58.610Z,20.48
2018-06-08T13:50:25.362Z,20.15
2018-06-08T13:52:52.191Z,15.50
2018-06-08T13:55:19.048Z,16.60
2018-06-08T13:57:45.854Z,14.13
2018-06-08T14:00:12.698Z,12.00
2018-06-08T14:02:39.570Z,16.17
2018-06-08T14:05:06.538Z,14.23
2018-06-08T14:07:33.524Z,16.30
2018-06-08T14:10:00.565Z,22.27
2018-06-08T14:12:27.496Z,16.50
2018-06-08T14:14:54.271Z,17.73
2018-06-08T14:17:21.687Z,16.00
2018-06-08T14:19:48.546Z,19.30
2018-06-08T14:22:16.003Z,17.65
2018-06-08T14:24:42.959Z,18.70
2018-06-08T14:27:09.795Z,13.95
2018-06-08T14:29:36.577Z,11.50
2018-06-08T14:32:03.524Z,18.12
2018-06-08T14:34:30.707Z,17.07
2018-06-08T14:36:58.487Z,12.85
2018-06-08T14:39:25.701Z,15.35
2018-06-08T14:41:53.564Z,16.62
2018-06-08T14:44:20.407Z,18.98
2018-06-08T14:46:47.241Z,16.82
2018-06-08T14:49:14.768Z,14.50
2018-06-08T14:51:42.226Z,16.32
2018-06-08T14:54:09.444Z,15.23
2018-06-08T14:56:37.085Z,15.72
2018-06-08T14:59:04.139Z,10.95
2018-06-08T15:01:30.975Z,19.35
2018-06-08T15:03:57.756Z,10.70
2018-06-08T15:06:24.730Z,11.00
2018-06-08T15:08:51.537Z,15.90
2018-06-08T15:11:18.496Z,11.90
2018-06-08T15:13:45.621Z,11.50
2018-06-08T15:16:12.450Z,15.70
2018-06-08T15:18:40.333Z,13.30
2018-06-08T15:21:07.169Z,10.88
2018-06-08T15:23:33.923Z,15.25
2018-06-08T15:26:00.670Z,13.25
2018-06-08T15:28:27.381Z,13.98
2018-06-08T15:30:54.115Z,15.15
2018-06-08T15:33:20.875Z,11.05
2018-06-08T15:35:47.555Z,13.20
2018-06-08T15:38:14.246Z,10.68
2018-06-08T15:40:41.057Z,8.75
2018-06-08T15:43:07.827Z,12.88
2018-06-08T15:45:34.682Z,12.85
2018-06-08T15:48:01.480Z,11.18
2018-06-08T15:50:28.202Z,12.30
2018-06-08T15:52:54.977Z,10.38
2018-06-08T15:55:21.733Z,11.45
2018-06-08T15:57:48.509Z,13.50
2018-06-08T16:00:15.291Z,13.30
2018-06-08T16:02:42.125Z,12.53
2018-06-08T16:05:08.846Z,11.45
2018-06-08T16:07:35.608Z,14.20
2018-06-08T16:10:02.391Z,12.68
2018-06-08T16:12:29.168Z,13.72
2018-06-08T16:14:56.045Z,13.43
2018-06-08T16:17:22.900Z,13.13
2018-06-08T16:19:49.752Z,13.95
2018-06-08T16:22:16.579Z,12.37
2018-06-08T16:24:43.449Z,10.82
2018-06-08T16:27:10.267Z,12.60
2018-06-08T16:29:37.056Z,14.60
2018-06-08T16:32:03.858Z,11.93
2018-06-08T16:34:30.678Z,11.10
2018-06-08T16:36:57.634Z,9.68
2018-06-08T16:39:29.434Z,11.97
2018-06-08T16:41:59.031Z,10.15
2018-06-08T16:44:26.452Z,12.55
2018-06-08T16:46:53.420Z,11.57
2018-06-08T16:49:21.025Z,11.18
2018-06-08T16:51:48.112Z,13.10
2018-06-08T16:54:15.450Z,13.13
2018-06-08T16:56:48.274Z,11.50
2018-06-08T16:59:17.253Z,10.38
2018-06-08T17:01:44.063Z,12.63
2018-06-08T17:04:10.931Z,8.78
2018-06-08T17:06:37.665Z,10.93
2018-06-08T17:09:04.854Z,9.45
2018-06-08T17:11:31.755Z,11.78
2018-06-08T17:13:58.658Z,13.68
2018-06-08T17:16:25.550Z,10.35
2018-06-08T17:18:52.520Z,13.93
2018-06-08T17:21:19.360Z,14.30
2018-06-08T17:23:46.205Z,8.50
2018-06-08T17:26:13.012Z,11.75
2018-06-08T17:28:39.844Z,15.25
2018-06-08T17:31:06.817Z,15.10
2018-06-08T17:33:33.696Z,13.62
2018-06-08T17:36:00.581Z,12.35
2018-06-08T17:38:27.453Z,9.80
2018-06-08T17:40:54.346Z,12.73
2018-06-08T17:43:21.119Z,12.88
2018-06-08T17:45:47.939Z,12.13
2018-06-08T17:48:14.857Z,13.05
2018-06-08T17:50:41.646Z,13.10
2018-06-08T17:53:08.426Z,18.32
2018-06-08T17:55:35.259Z,13.25
2018-06-08T17:58:02.001Z,17.00
2018-06-08T18:00:28.803Z,11.83
2018-06-08T18:05:35.449Z,11.20
2018-06-08T18:08:02.589Z,13.40
2018-06-08T18:10:30.595Z,11.05
2018-06-08T18:12:59.088Z,13.50
2018-06-08T18:15:27.700Z,10.43
2018-06-08T18:17:54.636Z,11.68
2018-06-08T18:20:21.516Z,11.70
2018-06-08T18:22:50.650Z,13.65
2018-06-08T18:25:31.547Z,10.82
2018-06-08T18:27:58.898Z,11.80
2018-06-08T18:30:25.836Z,10.93
2018-06-08T18:32:54.654Z,13.55
2018-06-08T18:35:23.648Z,10.53
2018-06-08T18:37:50.955Z,12.85
2018-06-08T18:40:17.781Z,13.45
2018-06-08T18:42:44.509Z,11.48
2018-06-08T18:45:12.190Z,12.30
2018-06-08T18:47:39.306Z,10.98
2018-06-08T18:50:06.226Z,14.03
2018-06-08T18:52:33.663Z,20.05
2018-06-08T18:55:00.515Z,10.68
2018-06-08T18:57:27.434Z,13.03
2018-06-08T18:59:54.286Z,14.53
2018-06-08T19:02:21.109Z,13.38
2018-06-08T19:04:48.062Z,8.78
2018-06-08T19:07:14.980Z,10.30
2018-06-08T19:09:41.839Z,9.20
2018-06-08T19:12:08.557Z,8.60
2018-06-08T19:14:35.615Z,9.60
2018-06-08T19:17:02.729Z,9.37
2018-06-08T19:19:29.698Z,8.85
2018-06-08T19:21:56.585Z,10.53
2018-06-08T19:24:23.602Z,12.40
2018-06-08T19:26:50.419Z,8.55
2018-06-08T19:29:17.365Z,11.12
2018-06-08T19:31:44.775Z,11.60
2018-06-08T19:34:12.747Z,6.83
2018-06-08T19:36:40.083Z,8.93
2018-06-08T19:39:07.002Z,5.00
2018-06-08T19:41:34.565Z,11.38
2018-06-08T19:44:01.949Z,11.25
2018-06-08T19:46:29.591Z,8.10
2018-06-08T19:48:56.838Z,9.20
2018-06-08T19:51:24.157Z,7.08
2018-06-08T19:53:51.199Z,9.65
2018-06-08T19:56:17.948Z,13.20
2018-06-08T19:58:45.293Z,8.13
2018-06-08T20:01:12.816Z,7.58
2018-06-08T20:03:39.728Z,8.00
2018-06-08T20:06:06.639Z,12.88
2018-06-08T20:08:34.399Z,9.38
2018-06-08T20:11:01.324Z,9.68
2018-06-08T20:13:28.300Z,8.95
2018-06-08T20:15:55.072Z,9.20
2018-06-08T20:18:22.434Z,8.90
2018-06-08T20:20:49.265Z,7.83
2018-06-08T20:23:16.098Z,7.40
2018-06-08T20:25:42.986Z,6.65
2018-06-08T20:28:09.924Z,6.53
2018-06-08T20:30:36.880Z,11.75
2018-06-08T20:33:03.612Z,9.83
2018-06-08T20:35:31.285Z,6.85
2018-06-08T20:37:58.434Z,6.92
2018-06-08T20:40:26.024Z,8.13
2018-06-08T20:42:52.814Z,8.33
2018-06-08T20:45:19.674Z,9.80
2018-06-08T20:47:46.849Z,7.45
2018-06-08T20:50:14.498Z,9.25
2018-06-08T20:52:41.436Z,7.10
2018-06-08T20:55:08.523Z,7.33
2018-06-08T20:57:35.308Z,8.35
2018-06-08T21:00:02.246Z,6.80
2018-06-08T21:02:29.984Z,8.35
2018-06-08T21:04:56.762Z,7.97
2018-06-08T21:07:24.235Z,7.12
2018-06-08T21:10:00.473Z,8.78
2018-06-08T21:12:37.977Z,8.95
2018-06-08T21:15:11.830Z,5.63
2018-06-08T21:17:44.892Z,8.28
2018-06-08T21:21:50.178Z,8.28
2018-06-08T21:24:17.780Z,13.30
2018-06-08T21:26:45.335Z,8.55
2018-06-08T21:29:12.083Z,7.10
2018-06-08T21:31:38.865Z,9.75
2018-06-08T21:34:05.712Z,6.03
2018-06-08T21:36:33.968Z,7.72
2018-06-08T21:39:01.342Z,7.50
2018-06-08T21:41:28.667Z,6.92
2018-06-08T21:43:55.886Z,5.95
2018-06-08T21:46:22.734Z,11.07
2018-06-08T21:48:49.675Z,11.63
2018-06-08T21:51:16.624Z,8.53
2018-06-08T21:53:43.455Z,7.97
2018-06-08T21:56:10.396Z,6.42
2018-06-08T21:58:38.250Z,5.53
2018-06-08T22:01:05.712Z,11.93
2018-06-08T22:03:33.216Z,10.63
2018-06-08T22:06:00.024Z,4.83
2018-06-08T22:08:28.944Z,7.37
2018-06-08T22:10:56.756Z,8.55
2018-06-08T22:13:23.906Z,10.15
2018-06-08T22:15:50.856Z,7.60
2018-06-08T22:18:17.682Z,7.27
2018-06-08T22:20:46.638Z,4.80
2018-06-08T22:23:13.771Z,8.67
2018-06-08T22:25:40.470Z,6.97
2018-06-08T22:28:07.200Z,6.78
2018-06-08T22:30:33.956Z,11.80
2018-06-08T22:33:00.674Z,6.10
2018-06-08T22:35:27.502Z,10.00
2018-06-08T22:37:54.905Z,9.50
2018-06-08T22:40:21.618Z,5.03
2018-06-08T22:42:48.948Z,6.80
2018-06-08T22:45:17.017Z,11.73
2018-06-08T22:47:45.097Z,11.00
2018-06-08T22:50:11.905Z,6.55
2018-06-08T22:52:38.659Z,8.38
2018-06-08T22:55:05.441Z,6.40
2018-06-08T22:57:32.647Z,7.43
2018-06-08T22:59:59.627Z,6.73
2018-06-08T23:02:26.833Z,9.33
2018-06-08T23:04:54.094Z,9.50
2018-06-08T23:07:21.005Z,6.27
2018-06-08T23:09:47.786Z,9.33
2018-06-08T23:12:14.492Z,7.00
2018-06-08T23:14:41.643Z,6.40
2018-06-08T23:17:09.267Z,9.90
2018-06-08T23:19:37.018Z,7.65
2018-06-08T23:22:03.714Z,8.57
2018-06-08T23:24:30.384Z,8.30
2018-06-08T23:26:57.415Z,7.20
2018-06-08T23:29:24.878Z,7.73
2018-06-08T23:31:51.612Z,7.22
2018-06-08T23:34:19.153Z,7.35
2018-06-08T23:36:45.964Z,9.03
2018-06-08T23:39:12.864Z,11.53
2018-06-08T23:41:39.632Z,7.87
2018-06-08T23:44:07.874Z,7.80
2018-06-08T23:46:34.788Z,6.73
2018-06-08T23:49:02.306Z,7.80
2018-06-08T23:51:29.828Z,11.33
2018-06-08T23:53:57.136Z,6.03
2018-06-08T23:56:24.068Z,8.40
2018-06-08T23:58:50.848Z,8.77
